Time;durP1;ratioP1;P1;durP2;ratioP2;P2;SDS_P1;SDS_P2;PMS_P1;PMS_P2;Temp;Humidity;BMP_temperature;BMP_pressure;BME280_temperature;BME280_humidity;BME280_pressure;Samples;Min_cycle;Max_cycle;Signal;HPM_P1;HPM_P2
2019/07/09 00:00:27;;;;;;;2.2;1.2;;;;;;;30.18;23.47461;1005.227;;;;
2019/07/09 00:03:47;;;;;;;2.4;1.3;;;;;;;30.18;23.48633;1005.224;;;;
2019/07/09 00:07:08;;;;;;;4.7;1.4;;;;;;;30.16;23.53516;1005.252;;;;
2019/07/09 00:09:36;;;;;;;4.1;1.3;;;;;;;30.15;23.5459;1005.24;;;;
2019/07/09 00:10:02;;;;;;;3.1;1.3;;;;;;;30.15;23.5459;1005.253;;;;
2019/07/09 00:12:28;;;;;;;3.3;1.3;;;;;;;30.14;23.57031;1005.178;;;;
2019/07/09 00:14:53;;;;;;;4.4;1.3;;;;;;;30.13;23.58203;1005.186;;;;
2019/07/09 00:17:19;;;;;;;1.9;1.2;;;;;;;30.13;23.59473;1005.178;;;;
2019/07/09 00:19:44;;;;;;;6.1;1.3;;;;;;;30.11;23.62988;1005.143;;;;
2019/07/09 00:22:10;;;;;;;2.6;1.4;;;;;;;30.11;23.6543;1005.048;;;;
2019/07/09 00:24:35;;;;;;;4.1;1.3;;;;;;;30.12;23.66699;1005.074;;;;
2019/07/09 00:25:09;;;;;;;3.3;1.3;;;;;;;30.11;23.67871;1005.06;;;;
2019/07/09 00:27:33;;;;;;;2.5;1.3;;;;;;;30.1;23.69043;1005.061;;;;
2019/07/09 00:29:58;;;;;;;2.9;1.5;;;;;;;30.1;23.70313;1005.1;;;;
2019/07/09 00:33:18;;;;;;;2.5;1.4;;;;;;;30.09;23.72754;1005.063;;;;
2019/07/09 00:35:44;;;;;;;2.6;1.3;;;;;;;30.08;23.75098;1005.057;;;;
2019/07/09 00:39:05;;;;;;;2.4;1.5;;;;;;;30.08;23.75098;1005.087;;;;
2019/07/09 00:41:30;;;;;;;2.9;1.5;;;;;;;30.07;23.77539;1005.035;;;;
2019/07/09 00:43:54;;;;;;;2.9;1.2;;;;;;;30.07;23.78711;1004.983;;;;
2019/07/09 00:47:14;;;;;;;3;1.4;;;;;;;30.06;23.79883;1004.98;;;;
2019/07/09 00:49:39;;;;;;;2.4;1.3;;;;;;;30.06;23.81152;1004.999;;;;
2019/07/09 00:52:05;;;;;;;1.8;1.3;;;;;;;30.06;23.82422;1005.013;;;;
2019/07/09 00:55:24;;;;;;;2;1.5;;;;;;;30.05;23.84766;1004.992;;;;
2019/07/09 00:58:42;;;;;;;4.7;1.4;;;;;;;30.04;23.85938;1004.98;;;;
2019/07/09 01:01:08;;;;;;;2.4;1.3;;;;;;;30.05;23.84766;1004.995;;;;
2019/07/09 01:03:36;;;;;;;3.1;1.3;;;;;;;30.04;23.85938;1004.939;;;;
2019/07/09 01:05:59;;;;;;;3.3;1.4;;;;;;;30.02;23.89453;1004.928;;;;
2019/07/09 01:08:25;;;;;;;3.2;1.1;;;;;;;30.02;23.89453;1004.929;;;;
2019/07/09 01:10:50;;;;;;;2.1;1.3;;;;;;;30.04;23.91992;1004.973;;;;
2019/07/09 01:13:15;;;;;;;2.4;1.3;;;;;;;30.03;23.91992;1004.97;;;;
2019/07/09 01:15:40;;;;;;;4.1;1.2;;;;;;;30.05;23.9082;1004.949;;;;
2019/07/09 01:18:06;;;;;;;1.9;1.2;;;;;;;30.05;23.88379;1004.93;;;;
2019/07/09 01:20:31;;;;;;;3;1.4;;;;;;;30.06;23.89746;1004.915;;;;
2019/07/09 01:22:57;;;;;;;2.3;1.4;;;;;;;30.07;23.88574;1004.959;;;;
2019/07/09 01:25:22;;;;;;;1.7;1.2;;;;;;;30.07;23.91016;1004.953;;;;
2019/07/09 01:27:48;;;;;;;2.2;1.4;;;;;;;30.06;23.93359;1004.943;;;;
2019/07/09 01:30:13;;;;;;;3.3;1.5;;;;;;;30.05;23.94629;1004.89;;;;
2019/07/09 01:32:38;;;;;;;2.1;1.3;;;;;;;30.06;23.95898;1004.872;;;;
2019/07/09 01:35:03;;;;;;;2.6;1.3;;;;;;;30.06;23.99512;1004.838;;;;
2019/07/09 01:37:29;;;;;;;2.9;1.7;;;;;;;30.05;24.00684;1004.893;;;;
2019/07/09 01:39:55;;;;;;;3.3;1.6;;;;;;;30.05;24.01855;1004.881;;;;
2019/07/09 01:42:19;;;;;;;3.9;1.7;;;;;;;30.04;24.04297;1004.86;;;;
2019/07/09 01:45:38;;;;;;;2.2;1.5;;;;;;;30.03;24.06738;1004.859;;;;
2019/07/09 01:48:04;;;;;;;2.5;1.4;;;;;;;30.03;24.09082;1004.947;;;;
2019/07/09 01:51:23;;;;;;;3.3;1.5;;;;;;;30.03;24.10352;1004.988;;;;
2019/07/09 01:52:00;;;;;;;1.9;1.4;;;;;;;30.03;24.10352;1004.976;;;;
2019/07/09 01:54:25;;;;;;;3.3;1.3;;;;;;;30.03;24.11523;1004.957;;;;
2019/07/09 01:56:50;;;;;;;2.5;1.4;;;;;;;30.02;24.10352;1004.963;;;;
2019/07/09 01:59:15;;;;;;;3.4;1.6;;;;;;;30.03;24.11621;1004.944;;;;
2019/07/09 02:01:40;;;;;;;2.7;1.5;;;;;;;30.04;24.11621;1004.958;;;;
2019/07/09 02:02:07;;;;;;;1.8;1.4;;;;;;;30.04;24.12891;1004.986;;;;
2019/07/09 02:04:32;;;;;;;2.2;1.4;;;;;;;30.02;24.13965;1004.978;;;;
2019/07/09 02:06:57;;;;;;;3.3;1.5;;;;;;;30.03;24.12793;1004.906;;;;
2019/07/09 02:09:23;;;;;;;1.9;1.3;;;;;;;30.02;24.15234;1004.902;;;;
2019/07/09 02:11:48;;;;;;;3.3;1.4;;;;;;;30.02;24.16406;1004.94;;;;
2019/07/09 02:15:07;;;;;;;1.9;1.2;;;;;;;30.01;24.20117;1004.979;;;;
2019/07/09 02:18:26;;;;;;;3.4;1.3;;;;;;;30;24.22461;1004.936;;;;
2019/07/09 02:19:03;;;;;;;2.8;1.4;;;;;;;30;24.21289;1004.91;;;;
2019/07/09 02:21:29;;;;;;;2.4;1.2;;;;;;;30;24.23633;1004.871;;;;
2019/07/09 02:23:54;;;;;;;1.7;1.2;;;;;;;29.99;24.24902;1004.876;;;;
2019/07/09 02:26:19;;;;;;;3.3;1.4;;;;;;;30;24.26074;1004.827;;;;
2019/07/09 02:28:45;;;;;;;3.3;1.3;;;;;;;30;24.27344;1004.799;;;;
2019/07/09 02:29:11;;;;;;;2.6;1.2;;;;;;;29.99;24.26074;1004.823;;;;
2019/07/09 02:31:36;;;;;;;2.2;1.4;;;;;;;29.99;24.28516;1004.819;;;;
2019/07/09 02:34:01;;;;;;;1.6;1.3;;;;;;;29.98;24.29688;1004.84;;;;
2019/07/09 02:36:27;;;;;;;2.8;1.5;;;;;;;29.98;24.29688;1004.827;;;;
2019/07/09 02:38:52;;;;;;;3.5;1.4;;;;;;;29.98;24.30957;1004.9;;;;
2019/07/09 02:41:17;;;;;;;1.9;1.4;;;;;;;29.98;24.33398;1004.914;;;;
2019/07/09 02:44:37;;;;;;;3.9;1.5;;;;;;;29.98;24.3457;1004.904;;;;
2019/07/09 02:47:56;;;;;;;3.2;1.6;;;;;;;29.98;24.34668;1005.04;;;;
2019/07/09 02:50:21;;;;;;;2.8;1.4;;;;;;;29.98;24.37012;1005.079;;;;
2019/07/09 02:52:46;;;;;;;1.9;1.3;;;;;;;29.98;24.38281;1005.124;;;;
2019/07/09 02:55:12;;;;;;;3.3;1.5;;;;;;;29.97;24.39453;1005.13;;;;
2019/07/09 02:57:38;;;;;;;2.6;1.2;;;;;;;29.97;24.39453;1005.163;;;;
2019/07/09 03:00:03;;;;;;;2;1.2;;;;;;;29.98;24.39551;1005.205;;;;
2019/07/09 03:02:28;;;;;;;1.9;1.3;;;;;;;29.98;24.40723;1005.19;;;;
2019/07/09 03:05:47;;;;;;;3.8;1.3;;;;;;;29.96;24.46777;1005.261;;;;
2019/07/09 03:08:12;;;;;;;2.8;1.3;;;;;;;29.97;24.46777;1005.312;;;;
2019/07/09 03:10:38;;;;;;;2.2;1.5;;;;;;;29.95;24.50391;1005.333;;;;
2019/07/09 03:13:03;;;;;;;2.6;1.4;;;;;;;29.94;24.52734;1005.39;;;;
2019/07/09 03:15:28;;;;;;;2.5;1.4;;;;;;;29.95;24.52832;1005.407;;;;
2019/07/09 03:18:48;;;;;;;2.4;1.1;;;;;;;29.95;24.52832;1005.42;;;;
2019/07/09 03:21:13;;;;;;;2.1;1.2;;;;;;;29.94;24.55176;1005.441;;;;
2019/07/09 03:24:31;;;;;;;2.9;1.4;;;;;;;29.94;24.57617;1005.523;;;;
2019/07/09 03:27:51;;;;;;;3.8;1.5;;;;;;;29.91;24.61133;1005.59;;;;
2019/07/09 03:28:18;;;;;;;3.7;1.3;;;;;;;29.91;24.62402;1005.578;;;;
2019/07/09 03:30:44;;;;;;;1.7;1.2;;;;;;;29.91;24.61133;1005.619;;;;
2019/07/09 03:33:09;;;;;;;2.5;1.3;;;;;;;29.91;24.63574;1005.627;;;;
2019/07/09 03:35:35;;;;;;;3;1.3;;;;;;;29.91;24.66016;1005.686;;;;
2019/07/09 03:38:00;;;;;;;4.5;1.6;;;;;;;29.9;24.69727;1005.647;;;;
2019/07/09 03:40:25;;;;;;;2.3;1.4;;;;;;;29.9;24.66016;1005.654;;;;
2019/07/09 03:42:50;;;;;;;3.2;1.3;;;;;;;29.89;24.65918;1005.684;;;;
2019/07/09 03:45:16;;;;;;;4;1.5;;;;;;;29.9;24.63574;1005.768;;;;
2019/07/09 03:45:58;;;;;;;2;1.2;;;;;;;29.88;24.65918;1005.749;;;;
2019/07/09 03:49:17;;;;;;;2.7;1.3;;;;;;;29.88;24.65918;1005.785;;;;
2019/07/09 03:51:43;;;;;;;3.6;1.4;;;;;;;29.89;24.64648;1005.795;;;;
2019/07/09 03:54:09;;;;;;;5.7;1.4;;;;;;;29.87;24.63477;1005.791;;;;
2019/07/09 03:54:28;;;;;;;4.6;1.6;;;;;;;29.88;24.64648;1005.813;;;;
2019/07/09 03:56:53;;;;;;;4.2;1.4;;;;;;;29.88;24.63477;1005.819;;;;
2019/07/09 03:57:03;;;;;;;2.8;1.3;;;;;;;29.89;24.63477;1005.833;;;;
2019/07/09 03:59:28;;;;;;;2.7;1.2;;;;;;;29.88;24.63477;1005.854;;;;
2019/07/09 04:02:46;;;;;;;3.5;1.5;;;;;;;29.88;24.62207;1005.835;;;;
2019/07/09 04:05:12;;;;;;;4.6;1.4;;;;;;;29.88;24.62207;1005.787;;;;
2019/07/09 04:07:37;;;;;;;5.9;1.7;;;;;;;29.88;24.63477;1005.782;;;;
2019/07/09 04:10:56;;;;;;;3.4;1.6;;;;;;;29.88;24.64648;1005.778;;;;
2019/07/09 04:11:28;;;;;;;5.3;1.6;;;;;;;29.88;24.64648;1005.759;;;;
2019/07/09 04:13:54;;;;;;;3.1;1.5;;;;;;;29.89;24.64648;1005.728;;;;
2019/07/09 04:16:19;;;;;;;1.9;1.3;;;;;;;29.88;24.6709;1005.788;;;;
2019/07/09 04:20:32;;;;;;;4;1.4;;;;;;;29.87;24.71973;1005.833;;;;
2019/07/09 04:22:57;;;;;;;3.8;1.6;;;;;;;29.87;24.71973;1005.88;;;;
2019/07/09 04:25:23;;;;;;;3.4;1.3;;;;;;;29.87;24.73145;1005.872;;;;
2019/07/09 04:27:48;;;;;;;2.9;1.5;;;;;;;29.88;24.73242;1005.894;;;;
2019/07/09 04:30:13;;;;;;;4;1.5;;;;;;;29.88;24.73242;1005.89;;;;
2019/07/09 04:33:32;;;;;;;5.1;1.5;;;;;;;29.87;24.76953;1005.905;;;;
2019/07/09 04:35:57;;;;;;;3.2;1.4;;;;;;;29.86;24.79297;1005.925;;;;
2019/07/09 04:38:22;;;;;;;3.2;1.6;;;;;;;29.85;24.81641;1005.886;;;;
2019/07/09 04:38:32;;;;;;;2.7;1.3;;;;;;;29.85;24.81641;1005.89;;;;
2019/07/09 04:40:58;;;;;;;3.3;1.3;;;;;;;29.85;24.8291;1005.882;;;;
2019/07/09 04:43:23;;;;;;;3.6;1.6;;;;;;;29.87;24.81738;1005.898;;;;
2019/07/09 04:45:49;;;;;;;2.2;1.2;;;;;;;29.86;24.8418;1005.847;;;;
2019/07/09 04:48:14;;;;;;;3.3;1.5;;;;;;;29.87;24.85352;1005.797;;;;
2019/07/09 04:50:39;;;;;;;2.6;1.3;;;;;;;29.88;24.86719;1005.786;;;;
2019/07/09 04:53:05;;;;;;;3.3;1.5;;;;;;;29.89;24.85547;1005.763;;;;
2019/07/09 04:53:42;;;;;;;2.8;1.5;;;;;;;29.89;24.86719;1005.772;;;;
2019/07/09 04:56:07;;;;;;;5.2;1.5;;;;;;;29.89;24.87988;1005.799;;;;
2019/07/09 04:58:32;;;;;;;2.8;1.3;;;;;;;29.88;24.87891;1005.776;;;;
2019/07/09 05:00:57;;;;;;;2.8;1.3;;;;;;;29.88;24.8916;1005.781;;;;
2019/07/09 05:03:23;;;;;;;3.3;1.4;;;;;;;29.87;24.8916;1005.821;;;;
2019/07/09 05:05:48;;;;;;;2.3;1.4;;;;;;;29.87;24.90234;1005.774;;;;
2019/07/09 05:08:13;;;;;;;3.1;1.6;;;;;;;29.85;24.91504;1005.795;;;;
2019/07/09 05:10:38;;;;;;;5.3;1.6;;;;;;;29.85;24.90137;1005.815;;;;
2019/07/09 05:13:04;;;;;;;3.8;1.4;;;;;;;29.84;24.90137;1005.844;;;;
2019/07/09 05:16:23;;;;;;;3.1;1.4;;;;;;;29.85;24.92676;1005.891;;;;
2019/07/09 05:20:36;;;;;;;5.3;1.5;;;;;;;29.85;24.95117;1005.913;;;;
2019/07/09 05:23:54;;;;;;;4.9;1.5;;;;;;;29.82;24.98633;1005.907;;;;
2019/07/09 05:26:20;;;;;;;3.7;1.9;;;;;;;29.81;25.03418;1005.874;;;;
2019/07/09 05:29:39;;;;;;;4;1.6;;;;;;;29.77;25.09375;1005.84;;;;
2019/07/09 05:32:04;;;;;;;3.5;1.7;;;;;;;29.72;25.27441;1005.823;;;;
2019/07/09 05:34:29;;;;;;;4.7;1.9;;;;;;;29.67;25.36914;1005.859;;;;
2019/07/09 05:36:54;;;;;;;5.2;1.9;;;;;;;29.62;25.42773;1005.9;;;;
2019/07/09 05:39:19;;;;;;;8.5;2.1;;;;;;;29.52;25.56934;1005.932;;;;
2019/07/09 05:41:45;;;;;;;5.3;2.1;;;;;;;29.49;25.60449;1005.975;;;;
2019/07/09 05:44:10;;;;;;;6.5;2.1;;;;;;;29.46;25.62695;1005.908;;;;
2019/07/09 05:46:35;;;;;;;3.7;1.7;;;;;;;29.43;25.71094;1005.917;;;;
2019/07/09 05:49:00;;;;;;;5.7;2.2;;;;;;;29.42;25.73438;1005.929;;;;
2019/07/09 05:51:26;;;;;;;7.4;2.1;;;;;;;29.42;25.73438;1005.924;;;;
2019/07/09 05:53:51;;;;;;;6.4;1.9;;;;;;;29.46;25.71289;1005.89;;;;
2019/07/09 05:57:10;;;;;;;7;2.5;;;;;;;29.52;25.71582;1005.892;;;;
2019/07/09 05:59:36;;;;;;;6.3;2.2;;;;;;;29.52;25.72852;1005.909;;;;
2019/07/09 06:02:55;;;;;;;6.2;2.1;;;;;;;29.52;25.78906;1005.975;;;;
2019/07/09 06:05:21;;;;;;;5.5;1.9;;;;;;;29.51;25.78906;1005.989;;;;
2019/07/09 06:11:19;;;;;;;4.8;1.8;;;;;;;29.5;25.91016;1005.938;;;;
2019/07/09 06:13:44;;;;;;;6.5;2;;;;;;;29.53;25.86328;1005.932;;;;
2019/07/09 06:16:10;;;;;;;4.1;1.8;;;;;;;29.53;25.82715;1005.906;;;;
2019/07/09 06:18:35;;;;;;;4.9;1.8;;;;;;;29.56;25.79102;1005.989;;;;
2019/07/09 06:21:00;;;;;;;7.2;1.8;;;;;;;29.56;25.85254;1006.055;;;;
2019/07/09 06:23:26;;;;;;;5.9;1.9;;;;;;;29.55;25.79102;1006.011;;;;
2019/07/09 06:25:51;;;;;;;5.1;2.2;;;;;;;29.51;25.87402;1006.016;;;;
2019/07/09 06:28:16;;;;;;;6.9;1.7;;;;;;;29.43;25.95508;1005.986;;;;
2019/07/09 06:31:35;;;;;;;7.8;2.1;;;;;;;29.38;26.03809;1006.071;;;;
2019/07/09 06:34:01;;;;;;;6.6;2;;;;;;;29.37;26.08691;1006.113;;;;
2019/07/09 06:36:26;;;;;;;4.2;1.6;;;;;;;29.39;25.98926;1006.072;;;;
2019/07/09 06:38:51;;;;;;;7.2;1.8;;;;;;;29.4;25.97754;1006.087;;;;
2019/07/09 06:41:16;;;;;;;7.4;1.9;;;;;;;29.42;25.9541;1006.05;;;;
2019/07/09 06:41:44;;;;;;;3.9;1.5;;;;;;;29.43;25.94336;1006.078;;;;
2019/07/09 06:44:10;;;;;;;6.2;1.5;;;;;;;29.42;25.91797;1006.03;;;;
2019/07/09 06:46:35;;;;;;;4.1;1.6;;;;;;;29.42;25.9668;1006.04;;;;
2019/07/09 06:49:00;;;;;;;5;1.5;;;;;;;29.4;25.99023;1005.987;;;;
2019/07/09 06:51:25;;;;;;;5.6;1.6;;;;;;;29.4;26.01465;1005.964;;;;
2019/07/09 06:53:51;;;;;;;8;1.9;;;;;;;29.38;26.29492;1006.002;;;;
2019/07/09 06:56:16;;;;;;;7.7;1.7;;;;;;;29.38;26.56445;1005.984;;;;
2019/07/09 06:58:41;;;;;;;6.2;1.7;;;;;;;29.38;26.56445;1005.975;;;;
2019/07/09 07:01:06;;;;;;;6.5;1.9;;;;;;;29.37;26.625;1005.986;;;;
2019/07/09 07:03:32;;;;;;;6.4;1.8;;;;;;;29.31;26.71875;1006.03;;;;
2019/07/09 07:05:59;;;;;;;6.3;1.7;;;;;;;29.31;26.87793;1006.042;;;;
2019/07/09 07:06:10;;;;;;;6;1.8;;;;;;;29.31;26.84082;1006.043;;;;
2019/07/09 07:08:34;;;;;;;7.1;1.5;;;;;;;29.32;26.97656;1006.05;;;;
2019/07/09 07:11:00;;;;;;;5.9;1.6;;;;;;;29.35;26.84375;1006.107;;;;
2019/07/09 07:11:13;;;;;;;7.7;1.8;;;;;;;29.36;26.84375;1006.065;;;;
2019/07/09 07:13:38;;;;;;;6.8;1.6;;;;;;;29.39;26.83398;1006.064;;;;
2019/07/09 07:16:03;;;;;;;6.6;1.7;;;;;;;29.4;26.84668;1006.047;;;;
2019/07/09 07:18:29;;;;;;;3.6;1.4;;;;;;;29.42;26.65137;1005.969;;;;
2019/07/09 07:20:53;;;;;;;4.5;1.4;;;;;;;29.42;26.63965;1006.004;;;;
2019/07/09 07:24:12;;;;;;;5.8;1.6;;;;;;;29.43;26.62793;1005.99;;;;
2019/07/09 07:27:31;;;;;;;4;1.7;;;;;;;29.43;26.54297;1006.037;;;;
2019/07/09 07:29:57;;;;;;;4.5;1.4;;;;;;;29.42;26.50488;1006.011;;;;
2019/07/09 07:32:22;;;;;;;4.5;1.5;;;;;;;29.41;26.40723;1006.05;;;;
2019/07/09 07:34:47;;;;;;;4.6;1.4;;;;;;;29.41;26.40723;1005.996;;;;
2019/07/09 07:37:13;;;;;;;5.7;1.7;;;;;;;29.41;26.38281;1005.976;;;;
2019/07/09 07:39:38;;;;;;;5.8;1.8;;;;;;;29.4;26.30859;1005.939;;;;
2019/07/09 07:42:04;;;;;;;8.4;1.6;;;;;;;29.39;26.30762;1005.968;;;;
2019/07/09 07:44:29;;;;;;;8;2;;;;;;;29.39;26.32031;1005.991;;;;
2019/07/09 07:46:54;;;;;;;6.3;1.4;;;;;;;29.42;26.27344;1005.956;;;;
2019/07/09 07:50:13;;;;;;;6;1.2;;;;;;;29.47;26.22656;1005.942;;;;
2019/07/09 07:52:39;;;;;;;9.4;1.5;;;;;;;29.48;26.08008;1005.963;;;;
2019/07/09 07:53:22;;;;;;;5.4;1.3;;;;;;;29.46;26.11621;1005.934;;;;
2019/07/09 07:55:47;;;;;;;6;1.8;;;;;;;29.39;26.00195;1005.93;;;;
2019/07/09 07:58:13;;;;;;;4.1;1.5;;;;;;;29.31;26.0459;1005.895;;;;
2019/07/09 08:00:38;;;;;;;6.1;1.7;;;;;;;29.3;25.99707;1005.85;;;;
2019/07/09 08:03:03;;;;;;;5.6;1.3;;;;;;;29.27;25.95898;1005.895;;;;
2019/07/09 08:05:29;;;;;;;4.4;1.6;;;;;;;29.28;25.92285;1005.884;;;;
2019/07/09 08:07:54;;;;;;;6.9;1.4;;;;;;;29.29;25.80078;1005.872;;;;
2019/07/09 08:10:19;;;;;;;3.2;1.2;;;;;;;29.31;25.53223;1005.903;;;;
2019/07/09 08:12:45;;;;;;;4.5;1;;;;;;;29.31;25.3252;1005.899;;;;
2019/07/09 08:15:10;;;;;;;3.4;1.1;;;;;;;29.3;25.31152;1005.845;;;;
2019/07/09 08:18:29;;;;;;;2.3;1;;;;;;;29.34;25.16797;1005.814;;;;
2019/07/09 08:20:54;;;;;;;3.9;0.8;;;;;;;29.36;25.13184;1005.855;;;;
2019/07/09 08:23:20;;;;;;;3.1;0.8;;;;;;;29.34;25.07031;1005.841;;;;
2019/07/09 08:25:45;;;;;;;3.5;1.1;;;;;;;29.28;25.06641;1005.78;;;;
2019/07/09 08:29:05;;;;;;;3.1;1;;;;;;;29.19;25.15918;1005.799;;;;
2019/07/09 08:31:30;;;;;;;4.8;1;;;;;;;29.14;25.27832;1005.779;;;;
2019/07/09 08:33:56;;;;;;;6.7;1.1;;;;;;;29.15;25.31543;1005.797;;;;
2019/07/09 08:37:14;;;;;;;4.4;1.3;;;;;;;29.19;25.30566;1005.801;;;;
2019/07/09 08:39:41;;;;;;;2.3;1;;;;;;;29.23;25.31934;1005.868;;;;
2019/07/09 08:42:04;;;;;;;2.8;1;;;;;;;29.25;25.32129;1005.832;;;;
2019/07/09 08:44:32;;;;;;;2.6;0.9;;;;;;;29.28;25.33594;1005.801;;;;
2019/07/09 08:47:50;;;;;;;3.8;1.2;;;;;;;29.3;25.2998;1005.855;;;;
2019/07/09 08:50:16;;;;;;;3.8;1;;;;;;;29.31;25.20215;1005.885;;;;
2019/07/09 08:50:45;;;;;;;2.2;1.1;;;;;;;29.31;25.16602;1005.885;;;;
2019/07/09 08:53:10;;;;;;;3.5;1.2;;;;;;;29.33;25.19141;1005.853;;;;
2019/07/09 08:55:35;;;;;;;2.4;0.9;;;;;;;29.35;25.2041;1005.83;;;;
2019/07/09 08:58:01;;;;;;;4.2;0.8;;;;;;;29.34;25.13086;1005.859;;;;
2019/07/09 09:00:26;;;;;;;5.2;1;;;;;;;29.32;25.04492;1005.811;;;;
2019/07/09 09:02:52;;;;;;;4.3;1;;;;;;;29.32;25.08105;1005.818;;;;
2019/07/09 09:06:11;;;;;;;3.1;1;;;;;;;29.33;25.02051;1005.851;;;;
2019/07/09 09:08:36;;;;;;;4;1.2;;;;;;;29.34;25.02051;1005.841;;;;
2019/07/09 09:11:01;;;;;;;3.1;1.1;;;;;;;29.37;24.98633;1005.896;;;;
2019/07/09 09:11:49;;;;;;;4.4;1.2;;;;;;;29.38;24.96191;1005.878;;;;
2019/07/09 09:14:14;;;;;;;3.1;1;;;;;;;29.39;24.9502;1005.841;;;;
2019/07/09 09:17:36;;;;;;;3.3;1;;;;;;;29.37;24.97266;1005.853;;;;
2019/07/09 09:20:55;;;;;;;3.8;1.2;;;;;;;29.35;25.07031;1005.861;;;;
2019/07/09 09:23:22;;;;;;;3.7;1.2;;;;;;;29.37;25.03418;1005.811;;;;
2019/07/09 09:25:48;;;;;;;4.6;1.2;;;;;;;29.37;25.08398;1005.776;;;;
2019/07/09 09:28:14;;;;;;;5.4;1;;;;;;;29.36;25.03418;1005.772;;;;
2019/07/09 09:30:38;;;;;;;6;1.1;;;;;;;29.32;25.00781;1005.732;;;;
2019/07/09 09:33:03;;;;;;;3.8;1;;;;;;;29.31;25.03125;1005.735;;;;
2019/07/09 09:35:29;;;;;;;2.9;1.1;;;;;;;29.33;25.08105;1005.731;;;;
2019/07/09 09:37:54;;;;;;;4.8;1.4;;;;;;;29.34;25.05762;1005.786;;;;
2019/07/09 09:41:14;;;;;;;7.2;1.5;;;;;;;29.35;25.0459;1005.746;;;;
2019/07/09 09:43:39;;;;;;;5;1.2;;;;;;;29.36;24.97266;1005.751;;;;
2019/07/09 09:46:04;;;;;;;4.3;1.1;;;;;;;29.37;24.94922;1005.709;;;;
2019/07/09 09:46:26;;;;;;;4.2;1.1;;;;;;;29.37;24.97363;1005.695;;;;
2019/07/09 09:48:51;;;;;;;4.8;1.1;;;;;;;29.39;24.85254;1005.679;;;;
2019/07/09 09:51:16;;;;;;;3.9;1.5;;;;;;;29.4;24.80371;1005.626;;;;
2019/07/09 09:53:42;;;;;;;3.6;1.4;;;;;;;29.42;24.75586;1005.607;;;;
2019/07/09 09:54:03;;;;;;;6.3;1.3;;;;;;;29.42;24.75586;1005.569;;;;
2019/07/09 09:56:28;;;;;;;3.4;1.5;;;;;;;29.43;24.65918;1005.573;;;;
2019/07/09 09:58:54;;;;;;;2.3;1.1;;;;;;;29.39;24.68066;1005.593;;;;
2019/07/09 10:01:19;;;;;;;3.4;1.2;;;;;;;29.33;24.53125;1005.608;;;;
2019/07/09 10:03:44;;;;;;;6.4;1.3;;;;;;;29.33;24.51953;1005.612;;;;
2019/07/09 10:06:09;;;;;;;6.2;1.3;;;;;;;29.31;24.44434;1005.625;;;;
2019/07/09 10:08:35;;;;;;;6.1;1.5;;;;;;;29.29;24.32129;1005.741;;;;
2019/07/09 10:09:15;;;;;;;5.6;1.4;;;;;;;29.29;24.35742;1005.713;;;;
2019/07/09 10:11:39;;;;;;;4;1.1;;;;;;;29.3;24.37012;1005.744;;;;
2019/07/09 10:14:04;;;;;;;6.5;1.3;;;;;;;29.32;24.32324;1005.738;;;;
2019/07/09 10:17:23;;;;;;;4.8;1.5;;;;;;;29.31;24.10156;1005.772;;;;
2019/07/09 10:20:43;;;;;;;4.4;1.3;;;;;;;29.3;24.02832;1005.733;;;;
2019/07/09 10:23:10;;;;;;;7.7;1.3;;;;;;;29.29;23.91797;1005.713;;;;
2019/07/09 10:25:35;;;;;;;3.5;1.2;;;;;;;29.28;23.83105;1005.715;;;;
2019/07/09 10:28:00;;;;;;;5.3;1.5;;;;;;;29.24;23.85352;1005.748;;;;
2019/07/09 10:30:25;;;;;;;3.3;1.4;;;;;;;29.25;23.90332;1005.636;;;;
2019/07/09 10:32:51;;;;;;;5.1;1.5;;;;;;;29.28;23.91699;1005.706;;;;
2019/07/09 10:35:17;;;;;;;3.7;1.6;;;;;;;29.32;23.87012;1005.73;;;;
2019/07/09 10:37:42;;;;;;;3.7;1.5;;;;;;;29.33;23.84668;1005.79;;;;
2019/07/09 10:40:12;;;;;;;7.1;1.6;;;;;;;29.33;24.00586;1005.824;;;;
2019/07/09 10:42:38;;;;;;;5.4;1.5;;;;;;;29.34;24.03027;1005.833;;;;
2019/07/09 10:45:05;;;;;;;6.3;1.3;;;;;;;29.34;24.00586;1005.874;;;;
2019/07/09 10:47:29;;;;;;;4.4;1.4;;;;;;;29.35;24.00684;1005.833;;;;
2019/07/09 10:49:55;;;;;;;3.2;1.4;;;;;;;29.35;24.01855;1005.816;;;;
2019/07/09 10:52:20;;;;;;;3.6;1.3;;;;;;;29.33;24.05469;1005.795;;;;
2019/07/09 10:54:46;;;;;;;5.4;1.4;;;;;;;29.3;24.1748;1005.852;;;;
2019/07/09 10:57:11;;;;;;;5.4;1.4;;;;;;;29.3;24.11328;1005.834;;;;
2019/07/09 10:59:36;;;;;;;4.7;1.3;;;;;;;29.3;24.05273;1005.858;;;;
2019/07/09 11:02:02;;;;;;;3.5;1.6;;;;;;;29.3;23.97949;1005.804;;;;
2019/07/09 11:04:27;;;;;;;4.8;1.7;;;;;;;29.26;23.96484;1005.809;;;;
2019/07/09 11:06:52;;;;;;;4.6;1.6;;;;;;;29.27;25.12695;1005.869;;;;
2019/07/09 11:09:17;;;;;;;4.6;1.6;;;;;;;29.32;24.0293;1005.839;;;;
2019/07/09 11:12:38;;;;;;;3.8;1.3;;;;;;;29.35;23.77441;1005.854;;;;
2019/07/09 11:15:01;;;;;;;4.3;1.6;;;;;;;29.35;23.66406;1005.883;;;;
2019/07/09 11:15:40;;;;;;;3.9;1;;;;;;;29.35;23.66406;1005.862;;;;
2019/07/09 11:18:05;;;;;;;5.3;1.4;;;;;;;29.35;23.67578;1005.824;;;;
2019/07/09 11:20:33;;;;;;;3.2;1.1;;;;;;;29.35;23.57813;1005.832;;;;
2019/07/09 11:22:56;;;;;;;2.7;1.2;;;;;;;29.36;23.60352;1005.831;;;;
2019/07/09 11:26:14;;;;;;;5.3;1.4;;;;;;;29.37;23.56641;1005.785;;;;
2019/07/09 11:28:40;;;;;;;2.7;1.1;;;;;;;29.35;23.62695;1005.83;;;;
2019/07/09 11:31:08;;;;;;;3.3;1.3;;;;;;;29.35;23.59082;1005.758;;;;
2019/07/09 11:34:28;;;;;;;3.9;1.2;;;;;;;29.36;23.59082;1005.711;;;;
2019/07/09 11:36:53;;;;;;;5.7;1.5;;;;;;;29.36;23.54199;1005.746;;;;
2019/07/09 11:39:21;;;;;;;3.7;1.2;;;;;;;29.35;23.50488;1005.728;;;;
2019/07/09 11:41:45;;;;;;;3.3;1.1;;;;;;;29.32;23.4668;1005.667;;;;
2019/07/09 11:44:10;;;;;;;2.8;1.1;;;;;;;29.32;23.50391;1005.79;;;;
2019/07/09 11:46:38;;;;;;;2.4;1.1;;;;;;;29.31;23.4541;1005.691;;;;
2019/07/09 11:49:03;;;;;;;4.1;1;;;;;;;29.32;23.35645;1005.725;;;;
2019/07/09 11:52:20;;;;;;;6.8;1.3;;;;;;;29.34;23.36914;1005.697;;;;
2019/07/09 11:54:46;;;;;;;3.2;1.1;;;;;;;29.33;23.39355;1005.767;;;;
2019/07/09 11:57:12;;;;;;;4.6;1.1;;;;;;;29.36;23.40723;1005.79;;;;
2019/07/09 11:59:38;;;;;;;5.9;1.1;;;;;;;29.37;23.29785;1005.796;;;;
2019/07/09 12:02:05;;;;;;;8.4;1.2;;;;;;;29.38;23.26172;1005.759;;;;
2019/07/09 12:04:29;;;;;;;4.2;0.9;;;;;;;29.42;23.89941;1005.776;;;;
2019/07/09 12:06:54;;;;;;;4.7;1.1;;;;;;;29.45;23.46094;1005.702;;;;
2019/07/09 12:07:08;;;;;;;3.8;1.2;;;;;;;29.45;23.3877;1005.677;;;;
2019/07/09 12:09:33;;;;;;;4.5;1;;;;;;;29.52;26.49902;1005.62;;;;
2019/07/09 12:11:58;;;;;;;9;1.3;;;;;;;28.9;24.10449;1005.668;;;;
2019/07/09 12:14:24;;;;;;;4.7;0.7;;;;;;;28.26;27.4375;1005.759;;;;
2019/07/09 12:16:50;;;;;;;5;0.9;;;;;;;29.83;24.5332;1005.657;;;;
2019/07/09 12:19:14;;;;;;;5.1;1;;;;;;;30.11;23.37305;1005.606;;;;
2019/07/09 12:21:41;;;;;;;6.1;1.4;;;;;;;30.13;23.04297;1005.658;;;;
2019/07/09 12:24:07;;;;;;;7.8;0.9;;;;;;;30.15;23.75488;1005.635;;;;
2019/07/09 12:26:32;;;;;;;6;1;;;;;;;30.15;22.28516;1005.654;;;;
2019/07/09 12:28:57;;;;;;;4.7;0.9;;;;;;;30.09;22.03711;1005.673;;;;
2019/07/09 12:31:26;;;;;;;7.9;0.9;;;;;;;29.97;21.66309;1005.615;;;;
2019/07/09 12:33:48;;;;;;;6.3;1;;;;;;;29.85;21.33984;1005.501;;;;
2019/07/09 12:36:16;;;;;;;5.6;1.2;;;;;;;29.82;21.19141;1005.455;;;;
2019/07/09 12:38:41;;;;;;;6.7;1;;;;;;;29.87;21.32813;1005.444;;;;
2019/07/09 12:41:09;;;;;;;8.6;1.2;;;;;;;29.98;22.64355;1005.45;;;;
2019/07/09 12:43:35;;;;;;;5;0.9;;;;;;;29.99;21.21191;1005.49;;;;
2019/07/09 12:46:00;;;;;;;7.9;1.1;;;;;;;29.99;21.66504;1005.451;;;;
2019/07/09 12:48:25;;;;;;;6.8;0.9;;;;;;;30.06;21.05566;1005.424;;;;
2019/07/09 12:50:51;;;;;;;8.7;1.1;;;;;;;30.12;21.70801;1005.396;;;;
2019/07/09 12:54:09;;;;;;;11.1;1.2;;;;;;;30.21;21.49121;1005.333;;;;
2019/07/09 12:56:35;;;;;;;7.5;1.2;;;;;;;30.28;22.51172;1005.329;;;;
2019/07/09 12:59:02;;;;;;;10.6;1.1;;;;;;;30.32;22.28027;1005.29;;;;
2019/07/09 13:01:26;;;;;;;7.8;0.9;;;;;;;30.36;22.0127;1005.284;;;;
2019/07/09 13:03:51;;;;;;;10;0.9;;;;;;;30.32;21.06738;1005.287;;;;
2019/07/09 13:04:14;;;;;;;5.6;0.9;;;;;;;30.31;21.18945;1005.333;;;;
2019/07/09 13:06:39;;;;;;;10.9;1.4;;;;;;;30.23;21.23535;1005.287;;;;
2019/07/09 13:09:05;;;;;;;7.2;1.2;;;;;;;30.16;21.5625;1005.319;;;;
2019/07/09 13:12:23;;;;;;;5.3;1;;;;;;;30.07;21.52148;1005.294;;;;
2019/07/09 13:15:41;;;;;;;4.9;1.2;;;;;;;30.05;21.56934;1005.218;;;;
2019/07/09 13:16:09;;;;;;;10;1.4;;;;;;;30.07;22.14648;1005.202;;;;
2019/07/09 13:18:35;;;;;;;5;1;;;;;;;30.16;22.05273;1005.187;;;;
2019/07/09 13:21:01;;;;;;;8.7;1.2;;;;;;;30.27;21.38379;1005.233;;;;
2019/07/09 13:23:25;;;;;;;3;0.8;;;;;;;30.22;21.50391;1005.265;;;;
2019/07/09 13:25:50;;;;;;;3.6;1;;;;;;;30.19;21.69824;1005.29;;;;
2019/07/09 13:28:16;;;;;;;4.5;0.9;;;;;;;30.19;21.80859;1005.215;;;;
2019/07/09 13:30:47;;;;;;;2.3;1;;;;;;;30.2;21.55176;1005.175;;;;
2019/07/09 13:33:17;;;;;;;4.3;1;;;;;;;30.17;21.73438;1005.188;;;;
2019/07/09 13:36:33;;;;;;;5.7;1.3;;;;;;;30.19;21.49023;1005.106;;;;
2019/07/09 13:39:00;;;;;;;7.2;1.2;;;;;;;30.19;21.72266;1005.122;;;;
2019/07/09 13:39:44;;;;;;;5.4;0.9;;;;;;;30.18;21.52734;1005.127;;;;
2019/07/09 13:42:10;;;;;;;5.4;1.1;;;;;;;30.21;21.56445;1005.071;;;;
2019/07/09 13:44:35;;;;;;;4.9;1;;;;;;;30.22;21.50391;1005.03;;;;
2019/07/09 13:47:00;;;;;;;4.5;1;;;;;;;30.23;21.30859;1004.974;;;;
2019/07/09 13:47:20;;;;;;;5.5;1;;;;;;;30.23;21.25977;1004.954;;;;
2019/07/09 13:49:45;;;;;;;5.2;1.2;;;;;;;30.25;21.27246;1004.949;;;;
2019/07/09 13:52:10;;;;;;;5.7;1.1;;;;;;;30.26;21.16211;1005.003;;;;
2019/07/09 13:54:34;;;;;;;4.1;1;;;;;;;30.24;21.21094;1005.001;;;;
2019/07/09 13:57:56;;;;;;;3.3;0.8;;;;;;;30.27;20.92969;1004.955;;;;
2019/07/09 14:00:20;;;;;;;3.6;0.9;;;;;;;30.26;21.19922;1004.946;;;;
2019/07/09 14:02:49;;;;;;;4.8;0.9;;;;;;;30.23;21.125;1004.963;;;;
2019/07/09 14:06:08;;;;;;;6.6;0.9;;;;;;;30.19;21.08594;1004.997;;;;
2019/07/09 14:08:33;;;;;;;6.7;1;;;;;;;30.23;21.27148;1004.946;;;;
2019/07/09 14:10:58;;;;;;;8.4;1.2;;;;;;;30.26;20.94238;1004.945;;;;